Etusivu
METAR-TAF:

METAR-TAF

Lentoasemat :

Sotilaslentoasema Cameri

Novara, Italia

Leveyspiiri: 45-31N, Pituuspiiri: 008-40E, korkeus merenpinnasta: 178 m

Tämänhetkinen sää

Tämä raportti tehtiin 1 tunti ja 24 minuuttia sitten, kello 10.55 UTC
Tuuli 10 kn pohjoisesta
Lämpötila 9°C
Kosteus 87%
Ilmanpaine 1014 hPa
Näkyvyys 10 km tai enemmän
Hajonneita pilviä 3000 ft:n korkeudessa
heikkoa sadetta

METAR: LIMN 301055Z 35010KT 9999 -RA BKN030 09/07 Q1014 RMK OVC SCT080 VIS MIN 9999 BLU

Aika: 14:19 (12:19 UTC)

Sääennuste

Tämä raportti tehtiin 1 tunti ja 19 minuuttia sitten, kello 11.00 UTC
Ennuste voimassa 30. päivästä klo 12 UTC - 30. päivään klo 21 UTC
Tuuli 10 kn pohjoisesta
Näkyvyys 10 km tai enemmän
Hajonneita pilviä 3000 ft:n korkeudessa
Ajoittain
30. päivästä klo 12 UTC - 30. päivään klo 21 UTC
Näkyvyys: 4000 m
sadetta, utua

TAF: LIMN 301100Z 3012/3021 36010KT 9999 BKN030 TEMPO 3012/3021 4000 RA BR

Säähavainnot ja -ennusteet yli 4000 lentoasemalta (METAR- ja TAF-raportit).

Käytössä olevat sääasemat on merkitty karttaan keltaisilla ja punaisilla pisteillä.

Aseta hiiri pisteen päälle nähdäksesi sääaseman nimen.

Klikkaa sitten nähdäksesi säähavainnot ja -ennusteet.

Kartan vaihtaminen: klikkaa mustalla rastilla varustettuja vihreitä pisteitä, niin voit zoomata sisään; viivalla varustettua vihreää pistettä, niin voit zoomata ulos tai vihreitä nuolia, niin pääset viereisille kartoille.


METAR-TAF: